Oswego, NY (13126)

2:55 AM EST on February 09, 2016 (GMT -0500)
East side Of Oswego | | Change Station
CLOSE
Current Station
Personal Weather Station
Location: Oswego, NY
Elevation: 338 ft
Nearby Weather Stations

Elev 338 ft 43.45 °N, 76.50 °W | Updated 7 seconds ago

Snow
Snow
28.0 °F
Feels Like 21 °F
N
6.0
Wind Variable Wind from SE
Gusts 10.0 mph

Today
High -- | Low -- °F
--% Chance of Precip.
Yesterday
High -- | Low -- °F
Precip. -- in
Pressure 29.60 in
Visibility 2.5 miles
Clouds Few 800 ft
Overcast 2900 ft
Windchill 21 °F
Dew Point 24 °F
Humidity 86%
Rainfall 0.00 in
Snow Depth Not available.
7:13 AM 5:27 PM
New Moon, 1% visible
SPECI KFZY 090739Z AUTO 12007KT 2 1/2SM -SN FEW008 OVC029 M02/M04 A2960 RMK AO2 P0000 T10171044
Pressure 29.60 in
Visibility 2.5 miles
Clouds Few 800 ft
Overcast 2900 ft
Windchill 21 °F
Dew Point 24 °F
Humidity 86%
Rainfall 0.00 in
Snow Depth Not available.
7:13 AM 5:27 PM
New Moon, 1% visible
SPECI KFZY 090739Z AUTO 12007KT 2 1/2SM -SN FEW008 OVC029 M02/M04 A2960 RMK AO2 P0000 T10171044

10-Day Weather Forecast

Almanac

Astronomy

Feb. 09, 2016 Rise Set
Actual Time
Civil Twilight
Nautical Twilight
Astronomical Twilight
Moon
Length of Visible Light
Length of Day
Tomorrow will be .
, % of the Moon is Illuminated

Today's Extremes

State Highs State Lows

Community

WunderPhotos

Upload Photos

1,891,571 photos uploaded!

WunderBlog® & News

Nearby

Air Quality

  Air Quality AQ Index Pollutant
Not available.

Snow Depth

Station Depth Elevation

Earthquake Activity

City Distance Mag. Time & Date
Minimum magnitude displayed is 2.5.

Coastal Water Temperatures

Place Temperature

Stations

Nearby Weather Stations

Station Location Temp. Windchill Dew Point Humidity Wind Precip. Elev Updated Type
                   

Watches & Warnings

There are currently no watches in effect.